createdAt,value
2022-10-11T00:02:18.378Z,74.93
2022-10-11T00:04:40.319Z,75.07
2022-10-11T00:07:02.105Z,75.27
2022-10-11T00:09:23.996Z,75.33
2022-10-11T00:11:45.802Z,75.08
2022-10-11T00:14:08.406Z,75.19
2022-10-11T00:16:30.611Z,74.82
2022-10-11T00:18:52.471Z,75.04
2022-10-11T00:21:15.955Z,75.20
2022-10-11T00:23:38.328Z,74.85
2022-10-11T00:26:03.694Z,75.34
2022-10-11T00:28:26.360Z,75.05
2022-10-11T00:30:48.929Z,74.85
2022-10-11T00:33:10.781Z,75.07
2022-10-11T00:35:32.606Z,75.09
2022-10-11T00:37:56.883Z,75.10
2022-10-11T00:40:20.858Z,75.17
2022-10-11T00:42:42.745Z,75.53
2022-10-11T00:45:26.468Z,75.40
2022-10-11T00:47:48.311Z,75.43
2022-10-11T00:50:11.680Z,75.56
2022-10-11T00:52:40.419Z,75.13
2022-10-11T00:55:12.467Z,75.48
2022-10-11T00:57:41.756Z,75.23
2022-10-11T01:00:10.623Z,75.17
2022-10-11T01:02:32.597Z,75.29
2022-10-11T01:05:17.921Z,75.38
2022-10-11T01:07:38.944Z,75.10
2022-10-11T01:10:01.024Z,75.39
2022-10-11T01:12:29.397Z,75.38
2022-10-11T01:15:13.166Z,75.27
2022-10-11T01:18:21.646Z,75.20
2022-10-11T01:21:30.966Z,75.02
2022-10-11T01:24:18.239Z,74.96
2022-10-11T01:27:25.646Z,75.36
2022-10-11T01:30:07.589Z,75.16
2022-10-11T01:32:46.371Z,75.03
2022-10-11T01:35:25.118Z,74.95
2022-10-11T01:38:07.027Z,75.57
2022-10-11T01:40:42.070Z,75.29
2022-10-11T01:43:05.287Z,75.20
2022-10-11T01:45:27.497Z,75.37
2022-10-11T01:48:05.942Z,75.31
2022-10-11T01:50:48.962Z,75.42
2022-10-11T01:53:23.593Z,75.33
2022-10-11T01:56:18.246Z,75.98
2022-10-11T01:59:33.853Z,76.12
2022-10-11T02:02:40.735Z,75.87
2022-10-11T02:05:21.474Z,75.72
2022-10-11T02:07:55.540Z,75.71
2022-10-11T02:10:38.034Z,76.24
2022-10-11T02:13:35.987Z,75.72
2022-10-11T02:16:03.049Z,76.06
2022-10-11T02:18:33.167Z,76.22
2022-10-11T02:21:00.823Z,76.09
2022-10-11T02:23:43.139Z,75.96
2022-10-11T02:26:07.308Z,75.85
2022-10-11T02:28:32.425Z,76.10
2022-10-11T02:30:57.647Z,75.76
2022-10-11T02:33:31.026Z,75.63
2022-10-11T02:36:05.697Z,75.38
2022-10-11T02:38:39.825Z,75.65
2022-10-11T02:41:29.836Z,75.83
2022-10-11T02:44:11.858Z,76.05
2022-10-11T02:46:35.991Z,75.74
2022-10-11T02:49:02.199Z,75.55
2022-10-11T02:51:27.297Z,75.75
2022-10-11T02:53:49.195Z,76.03
2022-10-11T02:56:11.077Z,75.84
2022-10-11T02:58:32.824Z,75.53
2022-10-11T03:00:54.649Z,75.43
2022-10-11T03:03:16.456Z,75.75
2022-10-11T03:05:41.466Z,75.77
2022-10-11T03:08:03.614Z,75.96
2022-10-11T03:10:25.427Z,75.41
2022-10-11T03:12:47.568Z,75.53
2022-10-11T03:15:10.031Z,75.47
2022-10-11T03:17:36.626Z,75.87
2022-10-11T03:19:59.198Z,75.44
2022-10-11T03:22:21.590Z,75.73
2022-10-11T03:24:43.379Z,75.12
2022-10-11T03:27:05.149Z,75.47
2022-10-11T03:29:26.919Z,75.64
2022-10-11T03:31:48.674Z,75.81
2022-10-11T03:34:10.623Z,75.61
2022-10-11T03:36:32.409Z,75.87
2022-10-11T03:38:54.258Z,75.80
2022-10-11T03:41:16.048Z,75.43
2022-10-11T03:43:37.811Z,75.07
2022-10-11T03:45:59.628Z,75.59
2022-10-11T03:48:21.381Z,75.41
2022-10-11T03:50:43.213Z,75.22
2022-10-11T03:53:06.895Z,74.72
2022-10-11T03:55:28.727Z,75.22
2022-10-11T03:57:50.533Z,75.24
2022-10-11T04:00:12.917Z,75.52
2022-10-11T04:02:39.097Z,75.38
2022-10-11T04:05:01.848Z,75.42
2022-10-11T04:07:23.659Z,75.37
2022-10-11T04:09:45.965Z,75.77
2022-10-11T04:12:08.009Z,75.66
2022-10-11T04:14:30.032Z,75.66
2022-10-11T04:16:51.789Z,75.29
2022-10-11T04:19:13.700Z,75.75
2022-10-11T04:21:35.474Z,75.73
2022-10-11T04:23:57.302Z,75.58
2022-10-11T04:26:19.033Z,75.59
2022-10-11T04:28:41.023Z,75.38
2022-10-11T04:31:05.053Z,75.62
2022-10-11T04:33:26.964Z,75.39
2022-10-11T04:35:48.768Z,75.55
2022-10-11T04:38:10.669Z,75.49
2022-10-11T04:40:32.700Z,75.73
2022-10-11T04:42:54.538Z,75.24
2022-10-11T04:45:16.582Z,75.21
2022-10-11T04:47:40.401Z,74.65
2022-10-11T04:50:02.570Z,75.38
2022-10-11T04:52:25.893Z,75.22
2022-10-11T04:54:47.994Z,74.85
2022-10-11T04:57:09.821Z,75.25
2022-10-11T04:59:31.820Z,74.73
2022-10-11T05:01:53.713Z,74.86
2022-10-11T05:04:15.718Z,75.72
2022-10-11T05:06:37.520Z,75.37
2022-10-11T05:09:00.379Z,75.20
2022-10-11T05:11:22.289Z,75.19
2022-10-11T05:13:46.304Z,74.94
2022-10-11T05:16:11.104Z,74.91
2022-10-11T05:18:33.845Z,75.23
2022-10-11T05:21:05.943Z,75.29
2022-10-11T05:23:30.648Z,75.84
2022-10-11T05:25:52.451Z,75.38
2022-10-11T05:28:14.321Z,74.84
2022-10-11T05:30:36.250Z,75.21
2022-10-11T05:32:58.009Z,75.15
2022-10-11T05:35:19.851Z,75.34
2022-10-11T05:37:41.766Z,75.55
2022-10-11T05:40:04.256Z,74.89
2022-10-11T05:42:26.111Z,75.60
2022-10-11T05:44:47.888Z,75.04
2022-10-11T05:47:09.815Z,75.42
2022-10-11T05:49:31.666Z,75.35
2022-10-11T05:51:53.538Z,75.39
2022-10-11T05:54:15.376Z,75.31
2022-10-11T05:56:37.232Z,75.17
2022-10-11T05:59:02.336Z,75.38
2022-10-11T06:01:27.390Z,75.19
2022-10-11T06:03:49.698Z,75.76
2022-10-11T06:06:11.507Z,75.33
2022-10-11T06:08:33.712Z,75.64
2022-10-11T06:10:55.517Z,75.61
2022-10-11T06:13:17.336Z,75.68
2022-10-11T06:15:40.479Z,75.74
2022-10-11T06:18:02.342Z,75.94
2022-10-11T06:20:24.132Z,75.66
2022-10-11T06:22:45.990Z,76.07
2022-10-11T06:25:08.360Z,75.67
2022-10-11T06:27:30.299Z,75.87
2022-10-11T06:29:52.127Z,75.59
2022-10-11T06:32:13.886Z,76.13
2022-10-11T06:34:35.978Z,75.44
2022-10-11T06:36:57.888Z,75.55
2022-10-11T06:39:20.048Z,75.41
2022-10-11T06:41:41.899Z,75.49
2022-10-11T06:44:04.200Z,75.05
2022-10-11T06:46:28.251Z,74.74
2022-10-11T06:48:50.821Z,74.37
2022-10-11T06:51:14.958Z,74.79
2022-10-11T06:53:37.088Z,74.47
2022-10-11T06:56:04.720Z,75.10
2022-10-11T06:58:28.244Z,75.18
2022-10-11T07:00:50.083Z,75.24
2022-10-11T07:03:13.287Z,75.78
2022-10-11T07:05:35.502Z,75.99
2022-10-11T07:07:57.252Z,75.84
2022-10-11T07:10:19.145Z,76.25
2022-10-11T07:12:44.899Z,76.28
2022-10-11T07:15:07.512Z,76.61
2022-10-11T07:17:29.302Z,76.81
2022-10-11T07:19:51.070Z,76.40
2022-10-11T07:22:12.905Z,76.51
2022-10-11T07:24:34.687Z,76.46
2022-10-11T07:26:56.501Z,76.80
2022-10-11T07:29:18.404Z,76.93
2022-10-11T07:31:42.850Z,76.68
2022-10-11T07:34:04.814Z,76.64
2022-10-11T07:36:26.600Z,76.90
2022-10-11T07:38:50.052Z,76.86
2022-10-11T07:41:12.950Z,76.91
2022-10-11T07:43:35.710Z,76.35
2022-10-11T07:46:00.554Z,76.41
2022-10-11T07:48:22.821Z,76.33
2022-10-11T07:50:44.583Z,76.06
2022-10-11T07:53:06.468Z,75.95
2022-10-11T07:55:30.068Z,75.79
2022-10-11T07:57:51.804Z,75.65
2022-10-11T08:00:14.238Z,75.64
2022-10-11T08:02:36.054Z,75.96
2022-10-11T08:04:57.904Z,75.94
2022-10-11T08:07:19.704Z,75.75
2022-10-11T08:09:41.968Z,75.81
2022-10-11T08:12:03.966Z,75.62
2022-10-11T08:14:25.769Z,75.42
2022-10-11T08:16:48.440Z,75.61
2022-10-11T08:19:10.925Z,75.25
2022-10-11T08:21:33.441Z,75.16
2022-10-11T08:23:55.278Z,75.18
2022-10-11T08:26:17.140Z,75.43
2022-10-11T08:28:39.221Z,75.04
2022-10-11T08:31:01.938Z,75.27
2022-10-11T08:33:25.977Z,74.90
2022-10-11T08:35:48.877Z,75.09
2022-10-11T08:38:11.129Z,74.96
2022-10-11T08:40:35.244Z,74.42
2022-10-11T08:43:08.719Z,74.34
2022-10-11T08:45:42.657Z,74.46
2022-10-11T08:48:17.738Z,74.59
2022-10-11T08:50:41.145Z,74.41
2022-10-11T08:53:18.989Z,74.06
2022-10-11T08:55:51.162Z,74.02
2022-10-11T08:58:19.506Z,73.99
2022-10-11T09:00:43.843Z,73.79
2022-10-11T09:03:36.982Z,73.13
2022-10-11T09:06:37.313Z,72.82
2022-10-11T09:09:23.864Z,72.49
2022-10-11T09:12:16.899Z,72.03
2022-10-11T09:15:11.806Z,71.91
2022-10-11T09:18:02.899Z,70.85
2022-10-11T09:20:50.080Z,70.22
2022-10-11T09:23:39.890Z,70.12
2022-10-11T09:26:17.593Z,70.07
2022-10-11T09:29:04.069Z,69.81
2022-10-11T09:31:26.057Z,69.35
2022-10-11T09:33:52.183Z,69.29
2022-10-11T09:36:31.032Z,69.13
2022-10-11T09:39:33.430Z,68.45
2022-10-11T09:42:07.811Z,67.58
2022-10-11T09:44:34.549Z,67.37
2022-10-11T09:46:58.270Z,67.43
2022-10-11T09:49:25.248Z,66.61
2022-10-11T09:51:53.980Z,66.32
2022-10-11T09:54:18.399Z,66.30
2022-10-11T09:56:46.487Z,65.15
2022-10-11T09:59:30.200Z,64.43
2022-10-11T10:02:14.364Z,64.13
2022-10-11T10:05:12.716Z,63.38
2022-10-11T10:07:37.791Z,62.64
2022-10-11T10:10:31.179Z,61.89
2022-10-11T10:13:06.117Z,59.68
2022-10-11T10:15:36.059Z,59.37
2022-10-11T10:17:59.385Z,59.83
2022-10-11T10:20:34.613Z,60.72
2022-10-11T10:22:57.227Z,60.66
2022-10-11T10:25:32.785Z,59.43
2022-10-11T10:28:16.287Z,57.72
2022-10-11T10:30:55.366Z,57.92
2022-10-11T10:33:19.666Z,57.08
2022-10-11T10:35:56.628Z,56.92
2022-10-11T10:38:52.423Z,55.87
2022-10-11T10:41:18.996Z,54.95
2022-10-11T10:43:45.521Z,54.83
2022-10-11T10:46:29.044Z,54.22
2022-10-11T10:49:52.691Z,55.08
2022-10-11T10:52:47.977Z,55.18
2022-10-11T10:55:37.660Z,54.82
2022-10-11T10:58:25.215Z,55.29
2022-10-11T11:00:51.870Z,55.84
2022-10-11T11:04:15.240Z,55.73
2022-10-11T11:06:51.082Z,55.57
2022-10-11T11:09:45.220Z,55.32
2022-10-11T11:12:44.511Z,54.91
2022-10-11T11:15:37.938Z,53.32
2022-10-11T11:18:06.287Z,52.23
2022-10-11T11:21:15.753Z,53.42
2022-10-11T11:24:13.691Z,53.60
2022-10-11T11:26:55.434Z,53.70
2022-10-11T11:29:26.641Z,52.92
2022-10-11T11:32:30.105Z,51.71
2022-10-11T11:35:03.822Z,51.13
2022-10-11T11:37:34.450Z,50.02
2022-10-11T11:40:18.743Z,51.39
2022-10-11T11:42:51.942Z,52.14
2022-10-11T11:45:44.170Z,51.74
2022-10-11T11:48:17.033Z,52.39
2022-10-11T11:50:45.719Z,52.04
2022-10-11T11:53:47.924Z,50.82
2022-10-11T11:56:33.194Z,50.32
2022-10-11T11:58:54.918Z,50.58
2022-10-11T12:01:41.249Z,49.84
2022-10-11T12:04:14.544Z,50.46
2022-10-11T12:06:52.496Z,49.99
2022-10-11T12:09:23.390Z,49.80
2022-10-11T12:11:58.604Z,49.56
2022-10-11T12:14:29.763Z,50.12
2022-10-11T12:17:16.067Z,49.78
2022-10-11T12:19:43.948Z,49.36
2022-10-11T12:22:18.026Z,49.17
2022-10-11T12:25:01.048Z,47.92
2022-10-11T12:27:36.500Z,48.72
2022-10-11T12:29:58.305Z,47.69
2022-10-11T12:32:35.390Z,47.96
2022-10-11T12:35:31.488Z,46.61
2022-10-11T12:38:14.463Z,46.57
2022-10-11T12:40:43.823Z,46.34
2022-10-11T12:43:29.848Z,46.27
2022-10-11T12:45:51.854Z,46.14
2022-10-11T12:48:27.434Z,45.76
2022-10-11T12:51:32.564Z,46.73
2022-10-11T12:54:26.601Z,47.59
2022-10-11T12:57:26.881Z,48.00
2022-10-11T12:59:49.815Z,47.62
2022-10-11T13:02:39.814Z,46.91
2022-10-11T13:05:44.967Z,47.32
2022-10-11T13:08:16.003Z,47.46
2022-10-11T13:10:47.326Z,46.92
2022-10-11T13:13:24.553Z,46.85
2022-10-11T13:15:46.637Z,46.58
2022-10-11T13:18:16.053Z,46.75
2022-10-11T13:20:41.715Z,46.88
2022-10-11T13:23:04.377Z,47.88
2022-10-11T13:25:29.700Z,48.37
2022-10-11T13:27:55.089Z,48.97
2022-10-11T13:30:25.471Z,48.87
2022-10-11T13:32:48.354Z,49.42
2022-10-11T13:35:38.538Z,49.75
2022-10-11T13:38:01.068Z,50.20
2022-10-11T13:40:24.103Z,50.52
2022-10-11T13:42:48.565Z,50.59
2022-10-11T13:45:13.373Z,51.10
2022-10-11T13:47:35.456Z,51.19
2022-10-11T13:50:22.748Z,51.08
2022-10-11T13:52:57.464Z,51.47
2022-10-11T13:55:27.712Z,51.90
2022-10-11T13:57:52.283Z,52.21
2022-10-11T14:00:19.777Z,52.35
2022-10-11T14:03:19.620Z,52.32
2022-10-11T14:05:52.127Z,52.38
2022-10-11T14:08:45.163Z,52.07
2022-10-11T14:11:09.776Z,52.30
2022-10-11T14:13:41.849Z,52.51
2022-10-11T14:16:12.604Z,52.65
2022-10-11T14:18:59.278Z,52.31
2022-10-11T14:21:49.247Z,52.00
2022-10-11T14:24:11.623Z,51.61
2022-10-11T14:26:41.452Z,51.27
2022-10-11T14:29:14.744Z,51.00
2022-10-11T14:31:41.298Z,50.82
2022-10-11T14:34:04.510Z,49.99
2022-10-11T14:36:27.117Z,50.01
2022-10-11T14:38:51.617Z,48.57
2022-10-11T14:41:13.427Z,48.43
2022-10-11T14:43:35.250Z,48.60
2022-10-11T14:45:57.111Z,48.71
2022-10-11T14:48:36.606Z,47.86
2022-10-11T14:51:04.107Z,47.37
2022-10-11T14:53:26.333Z,47.37
2022-10-11T14:55:48.381Z,47.18
2022-10-11T14:58:14.665Z,46.35
2022-10-11T15:00:37.581Z,45.65
2022-10-11T15:03:00.091Z,46.14
2022-10-11T15:05:29.803Z,45.75
2022-10-11T15:07:55.009Z,46.67
2022-10-11T15:10:18.804Z,47.08
2022-10-11T15:12:40.669Z,47.50
2022-10-11T15:15:02.530Z,47.51
2022-10-11T15:17:24.292Z,47.55
2022-10-11T15:19:46.158Z,46.27
2022-10-11T15:22:08.063Z,46.49
2022-10-11T15:24:29.818Z,47.13
2022-10-11T15:26:51.613Z,46.60
2022-10-11T15:29:17.414Z,46.02
2022-10-11T15:31:39.897Z,45.29
2022-10-11T15:34:01.976Z,45.92
2022-10-11T15:36:23.808Z,45.84
2022-10-11T15:38:47.199Z,45.76
2022-10-11T15:41:18.831Z,46.44
2022-10-11T15:43:42.233Z,46.72
2022-10-11T15:46:04.679Z,47.06
2022-10-11T15:48:27.550Z,47.66
2022-10-11T15:50:50.703Z,47.80
2022-10-11T15:53:16.836Z,47.63
2022-10-11T15:55:50.054Z,47.58
2022-10-11T15:58:37.665Z,47.84
2022-10-11T16:01:05.951Z,47.94
2022-10-11T16:03:30.458Z,47.87
2022-10-11T16:05:54.642Z,48.31
2022-10-11T16:08:16.561Z,48.81
2022-10-11T16:10:39.300Z,49.01
2022-10-11T16:13:02.345Z,49.51
2022-10-11T16:15:27.208Z,50.05
2022-10-11T16:17:49.488Z,50.32
2022-10-11T16:20:11.302Z,50.56
2022-10-11T16:22:36.384Z,50.86
2022-10-11T16:24:58.162Z,50.89
2022-10-11T16:27:19.942Z,51.23
2022-10-11T16:29:41.929Z,51.29
2022-10-11T16:32:05.217Z,51.49
2022-10-11T16:34:27.191Z,51.75
2022-10-11T16:36:49.137Z,51.87
2022-10-11T16:39:18.235Z,52.17
2022-10-11T16:41:41.111Z,52.27
2022-10-11T16:44:03.747Z,52.48
2022-10-11T16:46:25.780Z,52.69
2022-10-11T16:48:48.676Z,53.11
2022-10-11T16:51:10.493Z,53.30
2022-10-11T16:53:35.432Z,53.58
2022-10-11T16:55:57.198Z,54.06
2022-10-11T16:58:19.049Z,53.96
2022-10-11T17:00:42.886Z,54.18
2022-10-11T17:03:04.768Z,54.58
2022-10-11T17:05:27.093Z,54.62
2022-10-11T17:07:48.841Z,54.98
2022-10-11T17:10:10.655Z,55.66
2022-10-11T17:12:35.440Z,55.61
2022-10-11T17:14:57.388Z,55.94
2022-10-11T17:17:20.142Z,56.34
2022-10-11T17:19:45.296Z,56.62
2022-10-11T17:22:09.184Z,57.12
2022-10-11T17:24:31.010Z,57.07
2022-10-11T17:26:54.217Z,57.45
2022-10-11T17:29:17.229Z,57.64
2022-10-11T17:31:39.186Z,57.73
2022-10-11T17:34:13.983Z,58.15
2022-10-11T17:36:51.071Z,58.35
2022-10-11T17:39:17.217Z,58.62
2022-10-11T17:41:39.110Z,58.91
2022-10-11T17:44:02.867Z,59.27
2022-10-11T17:46:25.810Z,59.40
2022-10-11T17:48:47.837Z,59.72
2022-10-11T17:51:13.912Z,59.73
2022-10-11T17:53:36.503Z,60.36
2022-10-11T17:55:58.986Z,60.85
2022-10-11T17:58:20.768Z,61.26
2022-10-11T18:00:42.974Z,61.11
2022-10-11T18:03:06.064Z,61.56
2022-10-11T18:05:27.993Z,61.60
2022-10-11T18:07:53.842Z,61.60
2022-10-11T18:10:15.825Z,62.02
2022-10-11T18:12:37.622Z,61.97
2022-10-11T18:14:59.583Z,62.02
2022-10-11T18:17:21.382Z,62.40
2022-10-11T18:19:43.166Z,62.67
2022-10-11T18:22:07.383Z,62.85
2022-10-11T18:24:29.376Z,62.50
2022-10-11T18:26:51.264Z,62.83
2022-10-11T18:29:13.451Z,63.17
2022-10-11T18:31:35.483Z,63.33
2022-10-11T18:33:58.671Z,63.67
2022-10-11T18:36:24.747Z,63.42
2022-10-11T18:38:49.215Z,63.79
2022-10-11T18:41:13.179Z,64.21
2022-10-11T18:43:35.106Z,63.99
2022-10-11T18:46:09.805Z,64.11
2022-10-11T18:48:32.713Z,64.07
2022-10-11T18:51:14.429Z,64.33
2022-10-11T18:53:37.761Z,64.34
2022-10-11T18:56:02.455Z,64.31
2022-10-11T18:58:24.374Z,64.58
2022-10-11T19:00:46.182Z,64.82
2022-10-11T19:03:08.011Z,64.84
2022-10-11T19:05:30.138Z,64.88
2022-10-11T19:07:51.942Z,64.90
2022-10-11T19:10:13.738Z,65.04
2022-10-11T19:12:35.500Z,65.48
2022-10-11T19:14:57.471Z,65.57
2022-10-11T19:17:22.659Z,65.59
2022-10-11T19:19:44.592Z,65.42
2022-10-11T19:22:06.907Z,65.58
2022-10-11T19:24:30.876Z,65.87
2022-10-11T19:26:54.134Z,65.59
2022-10-11T19:29:24.685Z,65.70
2022-10-11T19:31:53.741Z,65.59
2022-10-11T19:34:16.455Z,65.79
2022-10-11T19:36:41.980Z,65.84
2022-10-11T19:39:05.811Z,65.83
2022-10-11T19:41:28.477Z,66.31
2022-10-11T19:43:51.520Z,66.30
2022-10-11T19:46:27.329Z,66.67
2022-10-11T19:49:00.028Z,66.52
2022-10-11T19:51:25.321Z,66.52
2022-10-11T19:53:49.819Z,66.63
2022-10-11T19:56:18.415Z,66.47
2022-10-11T19:58:41.036Z,66.44
2022-10-11T20:01:16.548Z,66.93
2022-10-11T20:03:39.113Z,66.76
2022-10-11T20:06:07.510Z,67.08
2022-10-11T20:08:31.321Z,67.07
2022-10-11T20:10:55.093Z,67.04
2022-10-11T20:13:16.875Z,67.00
2022-10-11T20:15:38.982Z,67.30
2022-10-11T20:18:00.799Z,67.40
2022-10-11T20:20:22.593Z,67.21
2022-10-11T20:22:45.016Z,67.22
2022-10-11T20:25:07.720Z,67.50
2022-10-11T20:27:31.875Z,67.35
2022-10-11T20:29:53.935Z,67.73
2022-10-11T20:32:16.260Z,67.73
2022-10-11T20:34:39.477Z,67.99
2022-10-11T20:37:01.227Z,67.88
2022-10-11T20:39:23.772Z,68.07
2022-10-11T20:41:45.584Z,68.08
2022-10-11T20:44:09.738Z,67.97
2022-10-11T20:46:34.624Z,68.30
2022-10-11T20:49:01.927Z,67.98
2022-10-11T20:51:24.240Z,68.22
2022-10-11T20:53:46.655Z,68.42
2022-10-11T20:56:11.800Z,68.22
2022-10-11T20:58:34.043Z,68.16
2022-10-11T21:00:55.937Z,68.50
2022-10-11T21:03:18.057Z,68.42
2022-10-11T21:05:40.509Z,68.32
2022-10-11T21:08:02.536Z,68.46
2022-10-11T21:10:24.475Z,68.81
2022-10-11T21:12:46.405Z,68.64
2022-10-11T21:15:08.666Z,69.07
2022-10-11T21:17:30.423Z,68.77
2022-10-11T21:19:52.168Z,68.75
2022-10-11T21:22:13.928Z,68.89
2022-10-11T21:24:35.723Z,68.97
2022-10-11T21:27:00.608Z,69.21
2022-10-11T21:29:22.771Z,68.88
2022-10-11T21:31:44.687Z,69.30
2022-10-11T21:34:07.477Z,69.30
2022-10-11T21:36:29.359Z,69.04
2022-10-11T21:38:52.592Z,69.13
2022-10-11T21:41:18.252Z,69.30
2022-10-11T21:43:40.704Z,69.16
2022-10-11T21:47:01.195Z,69.05
2022-10-11T21:49:14.277Z,69.38
2022-10-11T21:51:36.178Z,69.78
2022-10-11T21:54:00.972Z,69.69
2022-10-11T21:56:23.240Z,69.98
2022-10-11T21:58:50.399Z,70.04
2022-10-11T22:01:12.409Z,69.70
2022-10-11T22:03:34.397Z,70.13
2022-10-11T22:05:56.345Z,69.60
2022-10-11T22:08:18.579Z,70.07
2022-10-11T22:10:44.396Z,69.70
2022-10-11T22:13:06.388Z,69.83
2022-10-11T22:15:28.110Z,69.93
2022-10-11T22:17:49.937Z,69.69
2022-10-11T22:20:11.781Z,69.66
2022-10-11T22:22:33.750Z,69.54
2022-10-11T22:24:55.781Z,69.60
2022-10-11T22:27:17.585Z,69.97
2022-10-11T22:29:39.343Z,69.82
2022-10-11T22:32:01.061Z,69.83
2022-10-11T22:34:22.836Z,69.72
2022-10-11T22:36:44.555Z,69.65
2022-10-11T22:39:08.167Z,70.04
2022-10-11T22:41:30.020Z,69.76
2022-10-11T22:43:52.232Z,70.40
2022-10-11T22:46:14.100Z,70.18
2022-10-11T22:48:36.270Z,70.30
2022-10-11T22:50:58.007Z,69.80
2022-10-11T22:53:20.543Z,70.24
2022-10-11T22:55:43.415Z,70.11
2022-10-11T22:58:05.658Z,70.18
2022-10-11T23:00:27.629Z,70.08
2022-10-11T23:02:49.423Z,70.01
2022-10-11T23:05:11.268Z,69.95
2022-10-11T23:07:33.022Z,69.84
2022-10-11T23:09:54.792Z,70.47
2022-10-11T23:12:16.630Z,70.19
2022-10-11T23:14:38.432Z,69.92
2022-10-11T23:17:00.544Z,69.98
2022-10-11T23:19:22.299Z,70.73
2022-10-11T23:21:44.080Z,70.94
2022-10-11T23:24:06.386Z,70.50
2022-10-11T23:26:28.181Z,70.80
2022-10-11T23:28:55.242Z,70.61
2022-10-11T23:31:18.482Z,70.48
2022-10-11T23:33:40.911Z,70.74
2022-10-11T23:36:03.220Z,70.87
2022-10-11T23:38:24.971Z,70.47
2022-10-11T23:40:46.758Z,70.59
2022-10-11T23:43:08.526Z,70.66
2022-10-11T23:45:30.463Z,70.49
2022-10-11T23:47:52.221Z,70.54
2022-10-11T23:50:13.959Z,70.92
2022-10-11T23:52:35.951Z,71.23
2022-10-11T23:54:57.710Z,70.97
2022-10-11T23:57:19.436Z,71.40
2022-10-11T23:59:41.238Z,70.87
